createdAt,value
2023-01-20T00:01:59.914Z,26.35
2023-01-20T00:04:27.995Z,26.75
2023-01-20T00:06:56.187Z,25.60
2023-01-20T00:09:24.261Z,24.70
2023-01-20T00:11:52.339Z,27.27
2023-01-20T00:14:21.125Z,25.35
2023-01-20T00:16:49.307Z,22.35
2023-01-20T00:19:18.767Z,24.20
2023-01-20T00:21:46.923Z,22.40
2023-01-20T00:24:15.266Z,23.85
2023-01-20T00:26:43.449Z,25.50
2023-01-20T00:29:11.627Z,22.98
2023-01-20T00:31:39.860Z,23.98
2023-01-20T00:34:08.032Z,22.58
2023-01-20T00:36:37.546Z,24.33
2023-01-20T00:39:06.002Z,23.23
2023-01-20T00:41:34.275Z,21.60
2023-01-20T00:44:02.387Z,23.02
2023-01-20T00:46:30.558Z,22.38
2023-01-20T00:48:58.884Z,22.38
2023-01-20T00:51:27.076Z,20.13
2023-01-20T00:53:56.764Z,20.35
2023-01-20T00:56:24.877Z,21.23
2023-01-20T00:58:55.167Z,21.30
2023-01-20T01:01:23.449Z,20.90
2023-01-20T01:03:54.167Z,20.52
2023-01-20T01:06:23.693Z,20.00
2023-01-20T01:08:51.860Z,19.98
2023-01-20T01:11:21.267Z,19.30
2023-01-20T01:13:49.409Z,18.83
2023-01-20T01:16:17.564Z,20.75
2023-01-20T01:18:45.756Z,19.88
2023-01-20T01:21:15.472Z,20.75
2023-01-20T01:23:43.624Z,18.45
2023-01-20T01:26:11.859Z,18.73
2023-01-20T01:28:41.611Z,18.67
2023-01-20T01:31:09.747Z,17.92
2023-01-20T01:33:37.861Z,19.38
2023-01-20T01:36:08.562Z,19.77
2023-01-20T01:38:36.753Z,18.75
2023-01-20T01:41:04.820Z,18.10
2023-01-20T01:43:33.685Z,17.75
2023-01-20T01:46:03.213Z,17.83
2023-01-20T01:48:32.958Z,16.98
2023-01-20T01:51:03.089Z,15.25
2023-01-20T01:53:31.252Z,15.02
2023-01-20T01:56:00.442Z,15.75
2023-01-20T01:58:29.295Z,15.90
2023-01-20T02:00:57.411Z,14.95
2023-01-20T02:03:27.544Z,15.98
2023-01-20T02:05:55.656Z,15.00
2023-01-20T02:08:23.788Z,16.05
2023-01-20T02:10:51.862Z,14.57
2023-01-20T02:13:19.999Z,15.18
2023-01-20T02:15:51.203Z,14.68
2023-01-20T02:18:40.154Z,14.80
2023-01-20T02:21:27.831Z,15.18
2023-01-20T02:24:31.939Z,16.05
2023-01-20T02:27:03.672Z,14.82
2023-01-20T02:29:46.176Z,14.80
2023-01-20T02:32:33.136Z,14.60
2023-01-20T02:35:03.612Z,14.45
2023-01-20T02:37:33.560Z,13.40
2023-01-20T02:40:08.720Z,14.20
2023-01-20T02:42:39.608Z,16.38
2023-01-20T02:45:10.507Z,14.45
2023-01-20T02:47:42.670Z,13.48
2023-01-20T02:50:22.207Z,13.68
2023-01-20T02:52:52.139Z,12.60
2023-01-20T02:55:24.043Z,13.07
2023-01-20T02:57:55.223Z,14.05
2023-01-20T03:00:26.397Z,13.70
2023-01-20T03:02:56.338Z,13.98
2023-01-20T03:05:26.010Z,12.82
2023-01-20T03:07:54.360Z,12.95
2023-01-20T03:10:23.847Z,12.43
2023-01-20T03:12:52.995Z,12.65
2023-01-20T03:15:23.151Z,12.68
2023-01-20T03:17:51.378Z,12.27
2023-01-20T03:20:21.005Z,13.02
2023-01-20T03:22:49.160Z,11.70
2023-01-20T03:25:17.348Z,11.80
2023-01-20T03:27:45.719Z,11.32
2023-01-20T03:30:14.992Z,11.55
2023-01-20T03:32:43.622Z,11.80
2023-01-20T03:35:11.853Z,12.18
2023-01-20T03:37:41.420Z,11.70
2023-01-20T03:40:10.770Z,10.85
2023-01-20T03:42:40.848Z,11.60
2023-01-20T03:45:10.987Z,11.73
2023-01-20T03:47:49.779Z,10.77
2023-01-20T03:50:24.039Z,11.77
2023-01-20T03:52:55.396Z,11.25
2023-01-20T03:55:24.968Z,10.02
2023-01-20T03:57:55.605Z,10.88
2023-01-20T04:00:24.209Z,10.27
2023-01-20T04:02:52.326Z,12.07
2023-01-20T04:05:20.596Z,11.43
2023-01-20T04:07:48.767Z,11.05
2023-01-20T04:10:18.713Z,10.45
2023-01-20T04:12:46.914Z,9.90
2023-01-20T04:15:15.212Z,10.55
2023-01-20T04:17:43.745Z,10.30
2023-01-20T04:20:12.416Z,10.05
2023-01-20T04:22:43.457Z,9.80
2023-01-20T04:25:15.291Z,10.88
2023-01-20T04:27:45.048Z,9.80
2023-01-20T04:30:14.311Z,10.85
2023-01-20T04:32:42.449Z,10.23
2023-01-20T04:35:11.621Z,9.27
2023-01-20T04:37:39.854Z,9.45
2023-01-20T04:40:09.191Z,9.30
2023-01-20T04:42:37.479Z,8.40
2023-01-20T04:45:08.858Z,8.82
2023-01-20T04:47:37.060Z,7.72
2023-01-20T04:50:05.613Z,8.80
2023-01-20T04:52:33.830Z,9.95
2023-01-20T04:55:01.880Z,9.00
2023-01-20T04:57:30.058Z,8.60
2023-01-20T04:59:58.211Z,9.65
2023-01-20T05:02:27.700Z,8.30
2023-01-20T05:04:55.883Z,8.20
2023-01-20T05:07:23.992Z,8.30
2023-01-20T05:09:52.123Z,9.48
2023-01-20T05:12:20.211Z,8.40
2023-01-20T05:14:48.405Z,8.07
2023-01-20T05:17:16.618Z,9.30
2023-01-20T05:19:46.145Z,7.45
2023-01-20T05:22:14.320Z,7.93
2023-01-20T05:24:42.696Z,8.07
2023-01-20T05:27:10.868Z,8.15
2023-01-20T05:29:38.941Z,7.72
2023-01-20T05:32:07.175Z,7.30
2023-01-20T05:34:35.346Z,7.70
2023-01-20T05:37:04.831Z,7.50
2023-01-20T05:39:33.025Z,7.43
2023-01-20T05:42:02.128Z,7.43
2023-01-20T05:44:30.354Z,7.78
2023-01-20T05:46:58.418Z,7.90
2023-01-20T05:49:26.643Z,7.85
2023-01-20T05:51:55.011Z,7.72
2023-01-20T05:54:24.667Z,6.97
2023-01-20T05:56:52.833Z,7.47
2023-01-20T05:59:21.030Z,8.18
2023-01-20T06:01:49.374Z,7.35
2023-01-20T06:04:17.452Z,8.45
2023-01-20T06:06:45.627Z,6.97
2023-01-20T06:09:13.714Z,7.45
2023-01-20T06:11:43.288Z,6.63
2023-01-20T06:14:11.396Z,7.70
2023-01-20T06:16:39.614Z,9.80
2023-01-20T06:19:07.744Z,6.72
2023-01-20T06:21:36.033Z,9.40
2023-01-20T06:24:04.128Z,6.22
2023-01-20T06:26:32.304Z,6.55
2023-01-20T06:29:01.963Z,7.20
2023-01-20T06:31:30.091Z,6.20
2023-01-20T06:33:58.298Z,7.00
2023-01-20T06:36:26.426Z,6.95
2023-01-20T06:38:54.591Z,6.88
2023-01-20T06:41:22.721Z,7.38
2023-01-20T06:43:52.052Z,7.65
2023-01-20T06:46:22.470Z,6.78
2023-01-20T06:48:50.816Z,8.52
2023-01-20T06:51:20.069Z,5.72
2023-01-20T06:53:48.458Z,8.50
2023-01-20T06:56:17.151Z,6.20
2023-01-20T06:58:45.372Z,8.70
2023-01-20T07:01:14.309Z,10.90
2023-01-20T07:03:44.491Z,8.10
2023-01-20T07:06:17.009Z,11.32
2023-01-20T07:08:45.270Z,9.50
2023-01-20T07:11:13.450Z,11.65
2023-01-20T07:13:41.584Z,15.63
2023-01-20T07:16:12.025Z,13.25
2023-01-20T07:18:41.235Z,14.15
2023-01-20T07:21:10.875Z,17.25
2023-01-20T07:23:39.006Z,28.10
2023-01-20T07:26:08.110Z,19.17
2023-01-20T07:28:36.406Z,26.67
2023-01-20T07:31:05.078Z,28.27
2023-01-20T07:33:33.232Z,23.27
2023-01-20T07:36:01.989Z,22.02
2023-01-20T07:38:31.507Z,27.25
2023-01-20T07:40:59.772Z,23.98
2023-01-20T07:43:28.064Z,22.45
2023-01-20T07:45:57.059Z,23.25
2023-01-20T07:48:25.749Z,28.27
2023-01-20T07:51:01.950Z,26.48
2023-01-20T07:53:31.593Z,26.98
2023-01-20T07:56:01.746Z,24.30
2023-01-20T07:58:29.996Z,27.55
2023-01-20T08:00:58.226Z,25.58
2023-01-20T08:03:27.480Z,26.42
2023-01-20T08:05:55.738Z,25.98
2023-01-20T08:08:24.560Z,28.00
2023-01-20T08:10:56.016Z,34.00
2023-01-20T08:13:24.220Z,29.83
2023-01-20T08:15:52.280Z,27.90
2023-01-20T08:18:20.416Z,32.53
2023-01-20T08:20:48.512Z,31.38
2023-01-20T08:23:16.731Z,40.10
2023-01-20T08:25:44.891Z,33.85
2023-01-20T08:28:14.374Z,35.17
2023-01-20T08:30:42.841Z,32.42
2023-01-20T08:33:11.343Z,32.67
2023-01-20T08:35:39.527Z,36.90
2023-01-20T08:38:07.759Z,30.00
2023-01-20T08:40:35.887Z,30.58
2023-01-20T08:43:04.061Z,30.30
2023-01-20T08:45:33.622Z,29.60
2023-01-20T08:48:01.732Z,29.63
2023-01-20T08:50:29.882Z,30.75
2023-01-20T08:52:57.997Z,31.52
2023-01-20T08:55:26.075Z,32.22
2023-01-20T08:57:54.727Z,34.47
2023-01-20T09:00:23.464Z,34.90
2023-01-20T09:02:53.054Z,28.95
2023-01-20T09:05:22.404Z,29.30
2023-01-20T09:07:50.442Z,33.58
2023-01-20T09:10:19.973Z,39.95
2023-01-20T09:12:48.717Z,36.33
2023-01-20T09:15:17.264Z,39.58
2023-01-20T09:17:45.366Z,35.75
2023-01-20T09:20:15.631Z,36.17
2023-01-20T09:22:43.765Z,38.33
2023-01-20T09:25:11.910Z,33.35
2023-01-20T09:27:40.209Z,35.08
2023-01-20T09:30:09.741Z,37.47
2023-01-20T09:32:37.849Z,37.20
2023-01-20T09:35:07.037Z,36.80
2023-01-20T09:37:54.207Z,35.83
2023-01-20T09:40:41.759Z,37.00
2023-01-20T09:43:36.891Z,37.50
2023-01-20T09:46:09.678Z,37.35
2023-01-20T09:48:56.809Z,37.15
2023-01-20T09:51:43.921Z,37.05
2023-01-20T09:54:15.552Z,38.55
2023-01-20T09:56:47.063Z,37.38
2023-01-20T09:59:17.026Z,38.75
2023-01-20T10:01:46.811Z,37.53
2023-01-20T10:04:17.340Z,41.33
2023-01-20T10:06:46.598Z,42.00
2023-01-20T10:09:21.357Z,40.47
2023-01-20T10:11:50.584Z,42.20
2023-01-20T10:14:22.092Z,46.50
2023-01-20T10:16:52.132Z,57.42
2023-01-20T10:19:27.342Z,55.97
2023-01-20T10:21:58.275Z,54.15
2023-01-20T10:24:30.479Z,53.35
2023-01-20T10:27:00.490Z,56.13
2023-01-20T10:29:30.708Z,59.28
2023-01-20T10:32:00.782Z,57.95
2023-01-20T10:34:31.923Z,56.85
2023-01-20T10:37:03.775Z,60.80
2023-01-20T10:39:36.647Z,62.83
2023-01-20T10:42:05.892Z,56.97
2023-01-20T10:44:35.044Z,59.17
2023-01-20T10:47:13.648Z,58.80
2023-01-20T10:49:53.202Z,58.47
2023-01-20T10:52:29.158Z,59.53
2023-01-20T10:55:02.584Z,60.15
2023-01-20T10:57:31.014Z,57.00
2023-01-20T11:00:00.964Z,57.70
2023-01-20T11:02:30.452Z,56.80
2023-01-20T11:05:00.180Z,56.33
2023-01-20T11:07:28.577Z,57.22
2023-01-20T11:09:56.733Z,56.10
2023-01-20T11:12:27.084Z,62.72
2023-01-20T11:14:55.646Z,65.47
2023-01-20T11:17:23.779Z,65.47
2023-01-20T11:19:53.152Z,68.28
2023-01-20T11:22:27.233Z,67.80
2023-01-20T11:24:55.843Z,66.57
2023-01-20T11:27:25.110Z,63.53
2023-01-20T11:29:58.123Z,65.90
2023-01-20T11:32:28.621Z,60.78
2023-01-20T11:34:56.911Z,65.95
2023-01-20T11:37:26.663Z,64.90
2023-01-20T11:40:07.663Z,63.17
2023-01-20T11:42:43.887Z,63.50
2023-01-20T11:45:26.361Z,60.22
2023-01-20T11:48:01.951Z,61.72
2023-01-20T11:50:32.959Z,60.47
2023-01-20T11:53:17.892Z,60.03
2023-01-20T11:55:48.189Z,58.08
2023-01-20T11:58:18.658Z,58.38
2023-01-20T12:00:48.396Z,57.55
2023-01-20T12:03:53.274Z,59.55
2023-01-20T12:06:23.856Z,58.80
2023-01-20T12:08:52.610Z,58.35
2023-01-20T12:11:24.807Z,62.53
2023-01-20T12:14:20.356Z,58.40
2023-01-20T12:17:04.753Z,58.45
2023-01-20T12:19:37.205Z,58.90
2023-01-20T12:22:10.818Z,58.90
2023-01-20T12:24:55.266Z,56.92
2023-01-20T12:27:26.963Z,59.15
2023-01-20T12:29:56.163Z,59.75
2023-01-20T12:32:25.717Z,58.70
2023-01-20T12:34:53.919Z,57.53
2023-01-20T12:37:23.922Z,57.60
2023-01-20T12:39:58.481Z,62.75
2023-01-20T12:43:02.240Z,76.43
2023-01-20T12:45:41.143Z,72.93
2023-01-20T12:48:19.117Z,82.82
2023-01-20T12:50:56.380Z,97.85
2023-01-20T12:53:34.444Z,94.22
2023-01-20T12:56:05.411Z,88.28
2023-01-20T12:58:40.781Z,88.45
2023-01-20T13:01:29.590Z,77.65
2023-01-20T13:04:18.160Z,80.45
2023-01-20T13:07:10.409Z,82.53
2023-01-20T13:09:45.191Z,83.40
2023-01-20T13:12:31.621Z,89.93
2023-01-20T13:15:01.890Z,99.85
2023-01-20T13:17:33.977Z,92.30
2023-01-20T13:20:04.867Z,89.00
2023-01-20T13:22:34.571Z,87.45
2023-01-20T13:25:04.973Z,84.78
2023-01-20T13:27:34.961Z,86.95
2023-01-20T13:30:04.560Z,85.25
2023-01-20T13:32:34.464Z,81.70
2023-01-20T13:35:06.663Z,82.00
2023-01-20T13:37:38.064Z,79.68
2023-01-20T13:40:28.156Z,77.05
2023-01-20T13:42:56.403Z,82.93
2023-01-20T13:45:26.450Z,83.13
2023-01-20T13:48:02.545Z,82.10
2023-01-20T13:50:33.748Z,86.75
2023-01-20T13:53:16.201Z,80.10
2023-01-20T13:55:54.915Z,83.68
2023-01-20T13:58:24.077Z,82.18
2023-01-20T14:00:53.002Z,78.03
2023-01-20T14:03:29.051Z,78.43
2023-01-20T14:06:00.076Z,80.78
2023-01-20T14:08:29.512Z,76.95
2023-01-20T14:11:14.284Z,76.22
2023-01-20T14:13:43.213Z,78.13
2023-01-20T14:16:19.945Z,75.15
2023-01-20T14:18:48.840Z,75.22
2023-01-20T14:21:20.196Z,76.85
2023-01-20T14:23:48.360Z,75.90
2023-01-20T14:26:21.535Z,78.28
2023-01-20T14:28:50.898Z,77.25
2023-01-20T14:31:24.165Z,77.63
2023-01-20T14:33:56.248Z,75.68
2023-01-20T14:36:26.698Z,68.70
2023-01-20T14:38:58.327Z,69.32
2023-01-20T14:41:28.537Z,59.90
2023-01-20T14:43:56.859Z,54.35
2023-01-20T14:46:25.178Z,59.33
2023-01-20T14:48:54.109Z,62.47
2023-01-20T14:51:22.502Z,57.55
2023-01-20T14:54:23.991Z,56.75
2023-01-20T14:56:53.593Z,55.38
2023-01-20T14:59:21.768Z,57.28
2023-01-20T15:01:54.657Z,54.33
2023-01-20T15:04:23.005Z,61.58
2023-01-20T15:06:55.462Z,65.03
2023-01-20T15:09:28.033Z,61.92
2023-01-20T15:12:42.673Z,59.10
2023-01-20T15:15:15.354Z,61.95
2023-01-20T15:18:19.968Z,61.28
2023-01-20T15:20:49.946Z,68.93
2023-01-20T15:23:22.531Z,63.83
2023-01-20T15:25:50.987Z,60.78
2023-01-20T15:28:25.779Z,61.65
2023-01-20T15:30:56.220Z,65.13
2023-01-20T15:33:24.870Z,64.07
2023-01-20T15:35:55.240Z,64.45
2023-01-20T15:38:23.368Z,54.15
2023-01-20T15:40:51.480Z,57.53
2023-01-20T15:43:19.774Z,58.88
2023-01-20T15:45:47.947Z,54.95
2023-01-20T15:48:18.056Z,55.75
2023-01-20T15:50:46.406Z,55.97
2023-01-20T15:53:14.593Z,56.30
2023-01-20T15:55:50.261Z,53.60
2023-01-20T15:58:23.311Z,53.00
2023-01-20T16:00:51.503Z,54.25
2023-01-20T16:03:21.015Z,53.50
2023-01-20T16:05:50.047Z,52.95
2023-01-20T16:08:18.342Z,54.83
2023-01-20T16:10:46.486Z,52.78
2023-01-20T16:13:14.711Z,56.20
2023-01-20T16:15:43.208Z,53.53
2023-01-20T16:18:15.676Z,57.42
2023-01-20T16:20:46.105Z,60.28
2023-01-20T16:23:14.530Z,54.10
2023-01-20T16:25:42.850Z,60.28
2023-01-20T16:28:18.582Z,69.85
2023-01-20T16:30:46.975Z,70.90
2023-01-20T16:33:19.071Z,64.90
2023-01-20T16:35:48.605Z,64.30
2023-01-20T16:38:17.676Z,63.78
2023-01-20T16:40:50.977Z,60.78
2023-01-20T16:43:19.401Z,58.25
2023-01-20T16:45:50.574Z,59.33
2023-01-20T16:48:18.739Z,59.88
2023-01-20T16:50:48.315Z,60.03
2023-01-20T16:53:16.917Z,60.40
2023-01-20T16:55:45.296Z,59.08
2023-01-20T16:58:13.596Z,58.95
2023-01-20T17:00:41.729Z,55.60
2023-01-20T17:03:10.060Z,60.85
2023-01-20T17:05:38.178Z,59.53
2023-01-20T17:08:07.791Z,57.30
2023-01-20T17:10:35.840Z,55.45
2023-01-20T17:13:04.003Z,55.40
2023-01-20T17:15:32.128Z,55.38
2023-01-20T17:18:00.401Z,53.42
2023-01-20T17:20:31.113Z,54.05
2023-01-20T17:22:59.335Z,54.50
2023-01-20T17:25:28.891Z,56.28
2023-01-20T17:27:57.142Z,58.75
2023-01-20T17:30:26.432Z,54.75
2023-01-20T17:32:54.882Z,63.33
2023-01-20T17:35:23.009Z,59.50
2023-01-20T17:37:51.206Z,60.72
2023-01-20T17:40:19.562Z,59.13
2023-01-20T17:42:49.195Z,61.78
2023-01-20T17:45:17.490Z,63.35
2023-01-20T17:47:45.878Z,62.22
2023-01-20T17:50:14.355Z,60.42
2023-01-20T17:52:42.669Z,64.82
2023-01-20T17:55:11.636Z,64.72
2023-01-20T17:57:39.788Z,54.70
2023-01-20T18:00:11.028Z,61.97
2023-01-20T18:02:39.453Z,61.42
2023-01-20T18:05:08.476Z,73.35
2023-01-20T18:07:36.557Z,69.50
2023-01-20T18:10:04.871Z,64.35
2023-01-20T18:12:33.065Z,66.45
2023-01-20T18:15:01.185Z,66.43
2023-01-20T18:17:34.405Z,62.40
2023-01-20T18:20:02.683Z,66.10
2023-01-20T18:22:30.966Z,70.65
2023-01-20T18:24:59.233Z,71.32
2023-01-20T18:27:27.333Z,71.47
2023-01-20T18:29:55.454Z,72.00
2023-01-20T18:32:23.518Z,74.32
2023-01-20T18:34:53.105Z,74.85
2023-01-20T18:37:21.314Z,67.93
2023-01-20T18:39:50.341Z,63.55
2023-01-20T18:42:18.522Z,61.20
2023-01-20T18:44:46.611Z,59.78
2023-01-20T18:47:14.782Z,61.92
2023-01-20T18:49:42.816Z,55.38
2023-01-20T18:52:12.432Z,61.42
2023-01-20T18:54:40.646Z,56.63
2023-01-20T18:57:09.182Z,57.25
2023-01-20T18:59:37.581Z,57.65
2023-01-20T19:02:05.684Z,58.22
2023-01-20T19:04:35.792Z,52.70
2023-01-20T19:07:03.988Z,54.70
2023-01-20T19:09:33.570Z,53.45
2023-01-20T19:12:01.733Z,53.13
2023-01-20T19:14:29.860Z,52.22
2023-01-20T19:16:58.060Z,54.10
2023-01-20T19:19:26.152Z,54.05
2023-01-20T19:21:54.301Z,55.78
2023-01-20T19:24:22.620Z,55.88
2023-01-20T19:26:52.286Z,53.58
2023-01-20T19:29:20.753Z,51.50
2023-01-20T19:31:49.247Z,53.22
2023-01-20T19:34:17.492Z,53.40
2023-01-20T19:36:45.659Z,51.47
2023-01-20T19:39:13.837Z,52.20
2023-01-20T19:41:41.974Z,51.25
2023-01-20T19:44:13.594Z,48.90
2023-01-20T19:46:41.884Z,51.78
2023-01-20T19:49:10.778Z,47.88
2023-01-20T19:51:38.932Z,48.65
2023-01-20T19:54:07.408Z,44.22
2023-01-20T19:56:35.851Z,46.65
2023-01-20T19:59:05.991Z,45.47
2023-01-20T20:01:36.266Z,45.30
2023-01-20T20:04:06.003Z,45.40
2023-01-20T20:06:35.303Z,44.33
2023-01-20T20:09:05.275Z,44.53
2023-01-20T20:11:33.387Z,45.28
2023-01-20T20:14:02.358Z,45.17
2023-01-20T20:16:31.676Z,45.95
2023-01-20T20:19:01.336Z,44.78
2023-01-20T20:21:29.569Z,42.60
2023-01-20T20:23:58.527Z,42.25
2023-01-20T20:26:27.922Z,41.42
2023-01-20T20:28:56.022Z,44.80
2023-01-20T20:31:29.347Z,42.75
2023-01-20T20:33:57.926Z,39.83
2023-01-20T20:36:29.543Z,42.13
2023-01-20T20:38:58.846Z,43.50
2023-01-20T20:41:29.110Z,39.40
2023-01-20T20:43:57.372Z,40.47
2023-01-20T20:46:26.053Z,40.50
2023-01-20T20:48:54.629Z,37.67
2023-01-20T20:51:23.768Z,40.78
2023-01-20T20:53:54.398Z,37.50
2023-01-20T20:56:22.574Z,38.63
2023-01-20T20:59:00.948Z,39.65
2023-01-20T21:01:30.148Z,39.15
2023-01-20T21:04:00.475Z,37.75
2023-01-20T21:06:28.835Z,35.47
2023-01-20T21:08:58.748Z,35.95
2023-01-20T21:11:26.916Z,35.08
2023-01-20T21:13:55.200Z,35.80
2023-01-20T21:16:23.803Z,36.42
2023-01-20T21:18:52.372Z,36.03
2023-01-20T21:21:20.850Z,34.03
2023-01-20T21:23:49.748Z,33.42
2023-01-20T21:26:19.460Z,34.88
2023-01-20T21:28:49.355Z,34.90
2023-01-20T21:31:19.254Z,32.65
2023-01-20T21:33:49.161Z,32.80
2023-01-20T21:36:17.323Z,36.30
2023-01-20T21:38:46.644Z,30.55
2023-01-20T21:41:15.409Z,32.08
2023-01-20T21:44:03.342Z,31.92
2023-01-20T21:46:32.461Z,33.28
2023-01-20T21:49:17.842Z,32.65
2023-01-20T21:52:03.301Z,33.28
2023-01-20T21:54:31.825Z,30.27
2023-01-20T21:57:00.204Z,29.27
2023-01-20T21:59:29.765Z,30.55
2023-01-20T22:01:57.960Z,32.30
2023-01-20T22:04:26.079Z,29.17
2023-01-20T22:06:54.212Z,28.10
2023-01-20T22:09:22.287Z,29.92
2023-01-20T22:11:50.572Z,29.67
2023-01-20T22:14:18.690Z,27.90
2023-01-20T22:16:48.226Z,26.75
2023-01-20T22:19:16.579Z,28.05
2023-01-20T22:21:44.686Z,27.63
2023-01-20T22:24:12.820Z,28.35
2023-01-20T22:26:40.940Z,27.80
2023-01-20T22:29:09.513Z,26.30
2023-01-20T22:31:37.639Z,28.25
2023-01-20T22:34:07.586Z,25.92
2023-01-20T22:36:35.877Z,27.55
2023-01-20T22:39:04.256Z,28.45
2023-01-20T22:41:32.422Z,25.60
2023-01-20T22:44:00.551Z,28.33
2023-01-20T22:46:29.066Z,24.20
2023-01-20T22:48:57.222Z,23.92
2023-01-20T22:51:27.942Z,24.45
2023-01-20T22:53:56.200Z,25.23
2023-01-20T22:56:25.106Z,26.42
2023-01-20T22:58:53.339Z,23.73
2023-01-20T23:01:22.306Z,24.42
2023-01-20T23:03:53.993Z,23.50
2023-01-20T23:06:22.207Z,24.13
2023-01-20T23:08:51.713Z,23.13
2023-01-20T23:11:20.891Z,23.58
2023-01-20T23:13:49.035Z,24.23
2023-01-20T23:16:18.035Z,21.48
2023-01-20T23:18:46.181Z,22.50
2023-01-20T23:21:14.429Z,23.13
2023-01-20T23:23:42.573Z,22.25
2023-01-20T23:26:14.683Z,21.15
2023-01-20T23:28:43.124Z,22.58
2023-01-20T23:31:12.293Z,22.13
2023-01-20T23:33:43.235Z,22.40
2023-01-20T23:36:13.105Z,22.00
2023-01-20T23:38:41.289Z,21.85
2023-01-20T23:41:09.344Z,20.92
2023-01-20T23:43:38.871Z,22.10
2023-01-20T23:46:07.158Z,19.33
2023-01-20T23:48:35.449Z,19.00
2023-01-20T23:51:04.007Z,20.88
2023-01-20T23:53:32.771Z,20.50
2023-01-20T23:56:01.573Z,19.90
2023-01-20T23:58:29.807Z,20.83
